43.2°F
Current conditions from King Hill
Updated every 5 minutes
 
  Wednesday April 23, 2014

Station Historical Data
Daily Summary for May 24, 2012 Units:  Both    English   Metric
« Previous Day
Next Day »
Daily Weekly Monthly Yearly Custom
  High: Low: Average:
Temperature: 79.6 °F /  26.4 °C 53.6 °F /  12 °C 67.7 °F /  19.8 °C
Dew Point: 67.9 °F /  19.9 °C 52.5 °F /  11.4 °C 61.1 °F /  16.2 °C
Humidity: 97% 61% 81%
Wind Speed: 9.0mph /  14.5km/h - 3.6mph /  5.8km/h
Wind Gust: 18.0mph /  29km/h - -
Wind- - SW
Pressure: 30.10 in /  1019.2 hPa 30.00 in /  1015.8 hPa -
Precipitation: 0.00 in /  0 mm    
Historical Graphs
 
 
Tabular Data for May 24, 2012
Time Temperature Dew Point Pressure Wind Wind Speed Wind Gust Humidity Daily Rainfall
00:04 57.5 °F /  14.2 °C 56.4 °F /  13.6 °C 30.00in /  1015.8hPa Calm   3.0mph /  4.8km/h 96% 0.00in /  0mm
00:10 57.9 °F /  14.4 °C 56.8 °F /  13.8 °C 30.00in /  1015.8hPa Calm   1.0mph /  1.6km/h 96% 0.00in /  0mm
00:20 57.3 °F /  14.1 °C 56.2 °F /  13.4 °C 30.00in /  1015.8hPa Calm     96% 0.00in /  0mm
00:29 55.8 °F /  13.2 °C 54.4 °F /  12.4 °C 30.00in /  1015.8hPa Calm     95% 0.00in /  0mm
00:34 55.5 °F /  13.1 °C 54.1 °F /  12.3 °C 30.01in /  1016.1hPa Calm     95% 0.00in /  0mm
00:39 55.3 °F /  12.9 °C 53.9 °F /  12.2 °C 30.01in /  1016.1hPa Calm     95% 0.00in /  0mm
00:44 55.1 °F /  12.8 °C 53.7 °F /  12.1 °C 30.01in /  1016.1hPa Calm     95% 0.00in /  0mm
00:50 54.9 °F /  12.7 °C 53.5 °F /  11.9 °C 30.01in /  1016.1hPa Calm     95% 0.00in /  0mm
00:54 54.7 °F /  12.6 °C 53.3 °F /  11.8 °C 30.01in /  1016.1hPa Calm     95% 0.00in /  0mm
01:04 55.1 °F /  12.8 °C 53.7 °F /  12.1 °C 30.01in /  1016.1hPa Calm     95% 0.00in /  0mm
01:09 54.8 °F /  12.7 °C 53.7 °F /  12.1 °C 30.01in /  1016.1hPa Calm     96% 0.00in /  0mm
01:14 54.5 °F /  12.5 °C 53.1 °F /  11.7 °C 30.01in /  1016.1hPa Calm     95% 0.00in /  0mm
01:19 55.1 °F /  12.8 °C 54.0 °F /  12.2 °C 30.02in /  1016.5hPa Calm     96% 0.00in /  0mm
01:24 55.7 °F /  13.2 °C 54.6 °F /  12.6 °C 30.01in /  1016.1hPa Calm     96% 0.00in /  0mm
01:29 55.4 °F /  13 °C 54.3 °F /  12.4 °C 30.01in /  1016.1hPa Calm     96% 0.00in /  0mm
01:34 55.3 °F /  12.9 °C 54.2 °F /  12.3 °C 30.02in /  1016.5hPa Calm     96% 0.00in /  0mm
01:39 54.9 °F /  12.7 °C 53.8 °F /  12.1 °C 30.02in /  1016.5hPa Calm     96% 0.00in /  0mm
01:44 54.6 °F /  12.6 °C 53.5 °F /  11.9 °C 30.01in /  1016.1hPa Calm     96% 0.00in /  0mm
01:49 54.3 °F /  12.4 °C 53.2 °F /  11.8 °C 30.02in /  1016.5hPa Calm     96% 0.00in /  0mm
01:54 54.1 °F /  12.3 °C 53.0 °F /  11.7 °C 30.02in /  1016.5hPa Calm     96% 0.00in /  0mm
01:59 54.1 °F /  12.3 °C 53.0 °F /  11.7 °C 30.02in /  1016.5hPa Calm     96% 0.00in /  0mm
02:04 54.0 °F /  12.2 °C 52.9 °F /  11.6 °C 30.02in /  1016.5hPa Calm     96% 0.00in /  0mm
02:09 53.9 °F /  12.2 °C 52.8 °F /  11.6 °C 30.02in /  1016.5hPa Calm     96% 0.00in /  0mm
02:14 53.9 °F /  12.2 °C 52.8 °F /  11.6 °C 30.02in /  1016.5hPa Calm     96% 0.00in /  0mm
02:19 53.9 °F /  12.2 °C 52.8 °F /  11.6 °C 30.02in /  1016.5hPa Calm     96% 0.00in /  0mm
02:24 54.1 °F /  12.3 °C 53.0 °F /  11.7 °C 30.02in /  1016.5hPa Calm     96% 0.00in /  0mm
02:29 54.1 °F /  12.3 °C 53.0 °F /  11.7 °C 30.02in /  1016.5hPa Calm     96% 0.00in /  0mm
02:34 53.9 °F /  12.2 °C 52.8 °F /  11.6 °C 30.02in /  1016.5hPa Calm     96% 0.00in /  0mm
02:39 53.8 °F /  12.1 °C 52.7 °F /  11.5 °C 30.02in /  1016.5hPa Calm     96% 0.00in /  0mm
02:44 53.6 °F /  12 °C 52.5 °F /  11.4 °C 30.02in /  1016.5hPa Calm     96% 0.00in /  0mm
02:49 53.7 °F /  12.1 °C 52.6 °F /  11.4 °C 30.02in /  1016.5hPa Calm     96% 0.00in /  0mm
02:54 53.9 °F /  12.2 °C 52.8 °F /  11.6 °C 30.02in /  1016.5hPa Calm     96% 0.00in /  0mm
02:59 53.9 °F /  12.2 °C 52.8 °F /  11.6 °C 30.02in /  1016.5hPa Calm     96% 0.00in /  0mm
03:04 54.2 °F /  12.3 °C 53.1 °F /  11.7 °C 30.02in /  1016.5hPa Calm     96% 0.00in /  0mm
03:09 54.4 °F /  12.4 °C 53.3 °F /  11.8 °C 30.02in /  1016.5hPa Calm     96% 0.00in /  0mm
03:14 54.4 °F /  12.4 °C 53.3 °F /  11.8 °C 30.02in /  1016.5hPa Calm     96% 0.00in /  0mm
03:19 54.4 °F /  12.4 °C 53.3 °F /  11.8 °C 30.03in /  1016.8hPa Calm     96% 0.00in /  0mm
03:29 54.6 °F /  12.6 °C 53.5 °F /  11.9 °C 30.03in /  1016.8hPa Calm     96% 0.00in /  0mm
03:34 54.8 °F /  12.7 °C 53.7 °F /  12.1 °C 30.03in /  1016.8hPa Calm     96% 0.00in /  0mm
03:39 54.8 °F /  12.7 °C 53.7 °F /  12.1 °C 30.03in /  1016.8hPa Calm     96% 0.00in /  0mm
03:44 54.8 °F /  12.7 °C 53.7 °F /  12.1 °C 30.03in /  1016.8hPa Calm     96% 0.00in /  0mm
03:54 54.8 °F /  12.7 °C 53.7 °F /  12.1 °C 30.03in /  1016.8hPa Calm     96% 0.00in /  0mm
03:59 54.9 °F /  12.7 °C 53.8 °F /  12.1 °C 30.03in /  1016.8hPa Calm     96% 0.00in /  0mm
04:04 54.9 °F /  12.7 °C 53.8 °F /  12.1 °C 30.03in /  1016.8hPa Calm     96% 0.00in /  0mm
04:09 54.8 °F /  12.7 °C 53.7 °F /  12.1 °C 30.03in /  1016.8hPa Calm     96% 0.00in /  0mm
04:14 54.9 °F /  12.7 °C 53.8 °F /  12.1 °C 30.03in /  1016.8hPa Calm     96% 0.00in /  0mm
04:19 55.1 °F /  12.8 °C 54.0 °F /  12.2 °C 30.03in /  1016.8hPa Calm     96% 0.00in /  0mm
04:24 55.5 °F /  13.1 °C 54.4 °F /  12.4 °C 30.03in /  1016.8hPa Calm     96% 0.00in /  0mm
04:29 55.6 °F /  13.1 °C 54.5 °F /  12.5 °C 30.03in /  1016.8hPa Calm     96% 0.00in /  0mm
04:34 55.6 °F /  13.1 °C 54.5 °F /  12.5 °C 30.03in /  1016.8hPa Calm     96% 0.00in /  0mm
04:44 55.5 °F /  13.1 °C 54.4 °F /  12.4 °C 30.04in /  1017.2hPa Calm   1.0mph /  1.6km/h 96% 0.00in /  0mm
04:50 56.1 °F /  13.4 °C 55.0 °F /  12.8 °C 30.04in /  1017.2hPa Calm   2.0mph /  3.2km/h 96% 0.00in /  0mm
04:59 56.7 °F /  13.7 °C 55.6 °F /  13.1 °C 30.04in /  1017.2hPa Calm   2.0mph /  3.2km/h 96% 0.00in /  0mm
05:04 56.9 °F /  13.8 °C 56.1 °F /  13.4 °C 30.04in /  1017.2hPa SSW 1.0mph /  1.6km/h 3.0mph /  4.8km/h 97% 0.00in /  0mm
05:09 57.0 °F /  13.9 °C 56.2 °F /  13.4 °C 30.05in /  1017.5hPa Calm   3.0mph /  4.8km/h 97% 0.00in /  0mm
05:14 57.1 °F /  13.9 °C 56.3 °F /  13.5 °C 30.04in /  1017.2hPa SSW 1.0mph /  1.6km/h 5.0mph /  8km/h 97% 0.00in /  0mm
05:19 57.1 °F /  13.9 °C 56.3 °F /  13.5 °C 30.05in /  1017.5hPa Calm   5.0mph /  8km/h 97% 0.00in /  0mm
05:24 57.1 °F /  13.9 °C 56.3 °F /  13.5 °C 30.05in /  1017.5hPa Calm   4.0mph /  6.4km/h 97% 0.00in /  0mm
05:29 56.9 °F /  13.8 °C 56.1 °F /  13.4 °C 30.05in /  1017.5hPa Calm   1.0mph /  1.6km/h 97% 0.00in /  0mm
05:39 56.3 °F /  13.5 °C 55.2 °F /  12.9 °C 30.05in /  1017.5hPa Calm   1.0mph /  1.6km/h 96% 0.00in /  0mm
05:44 56.1 °F /  13.4 °C 55.0 °F /  12.8 °C 30.05in /  1017.5hPa Calm   1.0mph /  1.6km/h 96% 0.00in /  0mm
05:49 56.0 °F /  13.3 °C 54.9 °F /  12.7 °C 30.05in /  1017.5hPa Calm   3.0mph /  4.8km/h 96% 0.00in /  0mm
05:54 56.0 °F /  13.3 °C 54.9 °F /  12.7 °C 30.05in /  1017.5hPa Calm   3.0mph /  4.8km/h 96% 0.00in /  0mm
05:59 56.3 °F /  13.5 °C 55.5 °F /  13.1 °C 30.05in /  1017.5hPa Calm   3.0mph /  4.8km/h 97% 0.00in /  0mm
06:04 56.5 °F /  13.6 °C 55.4 °F /  13 °C 30.05in /  1017.5hPa Calm   3.0mph /  4.8km/h 96% 0.00in /  0mm
06:09 56.6 °F /  13.7 °C 55.5 °F /  13.1 °C 30.05in /  1017.5hPa Calm   1.0mph /  1.6km/h 96% 0.00in /  0mm
06:14 56.3 °F /  13.5 °C 55.5 °F /  13.1 °C 30.05in /  1017.5hPa Calm     97% 0.00in /  0mm
06:19 55.8 °F /  13.2 °C 54.7 °F /  12.6 °C 30.05in /  1017.5hPa Calm   1.0mph /  1.6km/h 96% 0.00in /  0mm
06:24 56.2 °F /  13.4 °C 55.1 °F /  12.8 °C 30.05in /  1017.5hPa SW 3.0mph /  4.8km/h 6.0mph /  9.7km/h 96% 0.00in /  0mm
06:34 57.7 °F /  14.3 °C 56.9 °F /  13.8 °C 30.05in /  1017.5hPa SSW 2.0mph /  3.2km/h 7.0mph /  11.3km/h 97% 0.00in /  0mm
06:39 58.2 °F /  14.6 °C 57.4 °F /  14.1 °C 30.06in /  1017.8hPa SW 2.0mph /  3.2km/h 7.0mph /  11.3km/h 97% 0.00in /  0mm
06:44 58.7 °F /  14.8 °C 57.9 °F /  14.4 °C 30.06in /  1017.8hPa SSW 3.0mph /  4.8km/h 6.0mph /  9.7km/h 97% 0.00in /  0mm
06:49 59.0 °F /  15 °C 58.2 °F /  14.6 °C 30.06in /  1017.8hPa SW 2.0mph /  3.2km/h 6.0mph /  9.7km/h 97% 0.00in /  0mm
06:59 59.2 °F /  15.1 °C 58.3 °F /  14.6 °C 30.06in /  1017.8hPa SSW 3.0mph /  4.8km/h 6.0mph /  9.7km/h 97% 0.00in /  0mm
07:04 59.4 °F /  15.2 °C 58.5 °F /  14.7 °C 30.07in /  1018.2hPa SSW 2.0mph /  3.2km/h 7.0mph /  11.3km/h 97% 0.00in /  0mm
07:09 59.7 °F /  15.4 °C 58.8 °F /  14.9 °C 30.07in /  1018.2hPa SSW 1.0mph /  1.6km/h 7.0mph /  11.3km/h 97% 0.00in /  0mm
07:19 60.6 °F /  15.9 °C 59.7 °F /  15.4 °C 30.07in /  1018.2hPa Calm   7.0mph /  11.3km/h 97% 0.00in /  0mm
07:24 61.1 °F /  16.2 °C 60.0 °F /  15.6 °C 30.07in /  1018.2hPa SSW 4.0mph /  6.4km/h 7.0mph /  11.3km/h 96% 0.00in /  0mm
07:30 61.7 °F /  16.5 °C 60.5 °F /  15.8 °C 30.07in /  1018.2hPa Calm   10.0mph /  16.1km/h 96% 0.00in /  0mm
07:40 62.7 °F /  17.1 °C 61.2 °F /  16.2 °C 30.08in /  1018.5hPa Calm   8.0mph /  12.9km/h 95% 0.00in /  0mm
07:49 63.6 °F /  17.6 °C 61.5 °F /  16.4 °C 30.08in /  1018.5hPa Calm   6.0mph /  9.7km/h 93% 0.00in /  0mm
07:59 64.8 °F /  18.2 °C 62.1 °F /  16.7 °C 30.08in /  1018.5hPa SSW 2.0mph /  3.2km/h 8.0mph /  12.9km/h 91% 0.00in /  0mm
08:04 65.3 °F /  18.5 °C 62.0 °F /  16.7 °C 30.09in /  1018.8hPa Calm   7.0mph /  11.3km/h 89% 0.00in /  0mm
08:09 65.8 °F /  18.8 °C 62.1 °F /  16.7 °C 30.09in /  1018.8hPa SSW 1.0mph /  1.6km/h 7.0mph /  11.3km/h 88% 0.00in /  0mm
08:14 66.3 °F /  19.1 °C 62.3 °F /  16.8 °C 30.09in /  1018.8hPa SSW 2.0mph /  3.2km/h 7.0mph /  11.3km/h 87% 0.00in /  0mm
08:19 66.9 °F /  19.4 °C 62.6 °F /  17 °C 30.09in /  1018.8hPa SSW 3.0mph /  4.8km/h 8.0mph /  12.9km/h 86% 0.00in /  0mm
08:24 67.5 °F /  19.7 °C 63.2 °F /  17.3 °C 30.09in /  1018.8hPa SW 1.0mph /  1.6km/h 8.0mph /  12.9km/h 86% 0.00in /  0mm
08:34 68.4 °F /  20.2 °C 63.0 °F /  17.2 °C 30.09in /  1018.8hPa SSW 3.0mph /  4.8km/h 8.0mph /  12.9km/h 83% 0.00in /  0mm
08:39 68.7 °F /  20.4 °C 63.3 °F /  17.4 °C 30.09in /  1018.8hPa SSW 3.0mph /  4.8km/h 9.0mph /  14.5km/h 83% 0.00in /  0mm
08:44 69.0 °F /  20.6 °C 63.6 °F /  17.6 °C 30.10in /  1019.2hPa SSW 1.0mph /  1.6km/h 13.0mph /  20.9km/h 83% 0.00in /  0mm
08:49 69.3 °F /  20.7 °C 63.6 °F /  17.6 °C 30.10in /  1019.2hPa SSW 2.0mph /  3.2km/h 13.0mph /  20.9km/h 82% 0.00in /  0mm
08:54 69.9 °F /  21.1 °C 64.5 °F /  18.1 °C 30.09in /  1018.8hPa SSW 2.0mph /  3.2km/h 9.0mph /  14.5km/h 83% 0.00in /  0mm
08:59 70.2 °F /  21.2 °C 64.1 °F /  17.8 °C 30.10in /  1019.2hPa SSW 3.0mph /  4.8km/h 10.0mph /  16.1km/h 81% 0.00in /  0mm
09:04 70.4 °F /  21.3 °C 64.6 °F /  18.1 °C 30.10in /  1019.2hPa SW 3.0mph /  4.8km/h 10.0mph /  16.1km/h 82% 0.00in /  0mm
09:09 70.6 °F /  21.4 °C 64.5 °F /  18.1 °C 30.10in /  1019.2hPa SSW 2.0mph /  3.2km/h 10.0mph /  16.1km/h 81% 0.00in /  0mm
09:14 70.9 °F /  21.6 °C 64.8 °F /  18.2 °C 30.10in /  1019.2hPa Calm   8.0mph /  12.9km/h 81% 0.00in /  0mm
09:19 71.1 °F /  21.7 °C 65.0 °F /  18.3 °C 30.10in /  1019.2hPa SW 1.0mph /  1.6km/h 7.0mph /  11.3km/h 81% 0.00in /  0mm
09:24 71.3 °F /  21.8 °C 64.8 °F /  18.2 °C 30.10in /  1019.2hPa WSW 1.0mph /  1.6km/h 7.0mph /  11.3km/h 80% 0.00in /  0mm
09:29 71.3 °F /  21.8 °C 64.8 °F /  18.2 °C 30.10in /  1019.2hPa Calm   8.0mph /  12.9km/h 80% 0.00in /  0mm
09:34 71.5 °F /  21.9 °C 64.7 °F /  18.2 °C 30.10in /  1019.2hPa WSW 4.0mph /  6.4km/h 11.0mph /  17.7km/h 79% 0.00in /  0mm
09:54 72.7 °F /  22.6 °C 65.5 °F /  18.6 °C 30.10in /  1019.2hPa SW 1.0mph /  1.6km/h 11.0mph /  17.7km/h 78% 0.00in /  0mm
09:59 73.0 °F /  22.8 °C 65.7 °F /  18.7 °C 30.10in /  1019.2hPa SW 3.0mph /  4.8km/h 7.0mph /  11.3km/h 78% 0.00in /  0mm
10:04 72.9 °F /  22.7 °C 65.6 °F /  18.7 °C 30.10in /  1019.2hPa SW 1.0mph /  1.6km/h 11.0mph /  17.7km/h 78% 0.00in /  0mm
10:09 73.0 °F /  22.8 °C 66.1 °F /  18.9 °C 30.10in /  1019.2hPa SE 1.0mph /  1.6km/h 11.0mph /  17.7km/h 79% 0.00in /  0mm
10:14 73.6 °F /  23.1 °C 66.7 °F /  19.3 °C 30.10in /  1019.2hPa SSW 1.0mph /  1.6km/h 10.0mph /  16.1km/h 79% 0.00in /  0mm
10:19 73.7 °F /  23.2 °C 66.0 °F /  18.9 °C 30.10in /  1019.2hPa SW 7.0mph /  11.3km/h 10.0mph /  16.1km/h 77% 0.00in /  0mm
10:24 73.5 °F /  23.1 °C 65.9 °F /  18.8 °C 30.10in /  1019.2hPa SW 1.0mph /  1.6km/h 10.0mph /  16.1km/h 77% 0.00in /  0mm
10:29 73.8 °F /  23.2 °C 66.5 °F /  19.2 °C 30.10in /  1019.2hPa SW 5.0mph /  8km/h 11.0mph /  17.7km/h 78% 0.00in /  0mm
10:39 74.5 °F /  23.6 °C 67.2 °F /  19.6 °C 30.10in /  1019.2hPa South 1.0mph /  1.6km/h 7.0mph /  11.3km/h 78% 0.00in /  0mm
10:49 74.1 °F /  23.4 °C 66.1 °F /  18.9 °C 30.10in /  1019.2hPa SW 7.0mph /  11.3km/h 13.0mph /  20.9km/h 76% 0.00in /  0mm
10:54 74.3 °F /  23.5 °C 67.0 °F /  19.4 °C 30.10in /  1019.2hPa SW 4.0mph /  6.4km/h 13.0mph /  20.9km/h 78% 0.00in /  0mm
10:59 74.4 °F /  23.6 °C 66.3 °F /  19.1 °C 30.10in /  1019.2hPa WSW 5.0mph /  8km/h 12.0mph /  19.3km/h 76% 0.00in /  0mm
11:04 74.7 °F /  23.7 °C 67.4 °F /  19.7 °C 30.10in /  1019.2hPa SW 1.0mph /  1.6km/h 12.0mph /  19.3km/h 78% 0.00in /  0mm
11:09 74.6 °F /  23.7 °C 66.2 °F /  19 °C 30.10in /  1019.2hPa SW 7.0mph /  11.3km/h 15.0mph /  24.1km/h 75% 0.00in /  0mm
11:14 74.5 °F /  23.6 °C 66.8 °F /  19.3 °C 30.10in /  1019.2hPa SW 3.0mph /  4.8km/h 15.0mph /  24.1km/h 77% 0.00in /  0mm
11:19 74.5 °F /  23.6 °C 66.4 °F /  19.1 °C 30.10in /  1019.2hPa SSW 5.0mph /  8km/h 10.0mph /  16.1km/h 76% 0.00in /  0mm
11:24 74.0 °F /  23.3 °C 66.3 °F /  19.1 °C 30.10in /  1019.2hPa SSW 5.0mph /  8km/h 12.0mph /  19.3km/h 77% 0.00in /  0mm
11:29 74.1 °F /  23.4 °C 66.8 °F /  19.3 °C 30.09in /  1018.8hPa SW 4.0mph /  6.4km/h 12.0mph /  19.3km/h 78% 0.00in /  0mm
11:34 73.9 °F /  23.3 °C 65.5 °F /  18.6 °C 30.09in /  1018.8hPa SW 6.0mph /  9.7km/h 12.0mph /  19.3km/h 75% 0.00in /  0mm
11:39 74.3 °F /  23.5 °C 66.6 °F /  19.2 °C 30.09in /  1018.8hPa SSW 4.0mph /  6.4km/h 12.0mph /  19.3km/h 77% 0.00in /  0mm
11:44 74.8 °F /  23.8 °C 66.7 °F /  19.3 °C 30.09in /  1018.8hPa SW 4.0mph /  6.4km/h 11.0mph /  17.7km/h 76% 0.00in /  0mm
11:49 75.0 °F /  23.9 °C 66.2 °F /  19 °C 30.09in /  1018.8hPa SW 7.0mph /  11.3km/h 12.0mph /  19.3km/h 74% 0.00in /  0mm
11:54 75.5 °F /  24.2 °C 67.4 °F /  19.7 °C 30.09in /  1018.8hPa SSW 3.0mph /  4.8km/h 12.0mph /  19.3km/h 76% 0.00in /  0mm
11:59 75.9 °F /  24.4 °C 66.6 °F /  19.2 °C 30.08in /  1018.5hPa SSW 4.0mph /  6.4km/h 12.0mph /  19.3km/h 73% 0.00in /  0mm
12:04 76.3 °F /  24.6 °C 67.0 °F /  19.4 °C 30.08in /  1018.5hPa SSW 5.0mph /  8km/h 11.0mph /  17.7km/h 73% 0.00in /  0mm
12:09 76.2 °F /  24.6 °C 66.9 °F /  19.4 °C 30.09in /  1018.8hPa SSW 5.0mph /  8km/h 11.0mph /  17.7km/h 73% 0.00in /  0mm
12:14 76.3 °F /  24.6 °C 67.4 °F /  19.7 °C 30.08in /  1018.5hPa SW 5.0mph /  8km/h 11.0mph /  17.7km/h 74% 0.00in /  0mm
12:19 75.5 °F /  24.2 °C 65.9 °F /  18.8 °C 30.08in /  1018.5hPa SW 5.0mph /  8km/h 10.0mph /  16.1km/h 72% 0.00in /  0mm
12:24 75.3 °F /  24.1 °C 66.4 °F /  19.1 °C 30.08in /  1018.5hPa SW 5.0mph /  8km/h 10.0mph /  16.1km/h 74% 0.00in /  0mm
12:29 74.7 °F /  23.7 °C 65.9 °F /  18.8 °C 30.08in /  1018.5hPa SW 6.0mph /  9.7km/h 11.0mph /  17.7km/h 74% 0.00in /  0mm
12:34 75.0 °F /  23.9 °C 66.9 °F /  19.4 °C 30.08in /  1018.5hPa SW 4.0mph /  6.4km/h 11.0mph /  17.7km/h 76% 0.00in /  0mm
12:40 75.3 °F /  24.1 °C 67.2 °F /  19.6 °C 30.09in /  1018.8hPa SW 3.0mph /  4.8km/h 11.0mph /  17.7km/h 76% 0.00in /  0mm
12:49 75.6 °F /  24.2 °C 65.9 °F /  18.8 °C 30.08in /  1018.5hPa SSW 7.0mph /  11.3km/h 12.0mph /  19.3km/h 72% 0.00in /  0mm
12:59 76.4 °F /  24.7 °C 67.5 °F /  19.7 °C 30.08in /  1018.5hPa West 1.0mph /  1.6km/h 12.0mph /  19.3km/h 74% 0.00in /  0mm
13:04 77.1 °F /  25.1 °C 66.6 °F /  19.2 °C 30.08in /  1018.5hPa SW 4.0mph /  6.4km/h 9.0mph /  14.5km/h 70% 0.00in /  0mm
13:09 76.3 °F /  24.6 °C 65.8 °F /  18.8 °C 30.08in /  1018.5hPa WSW 8.0mph /  12.9km/h 14.0mph /  22.5km/h 70% 0.00in /  0mm
13:14 76.3 °F /  24.6 °C 65.8 °F /  18.8 °C 30.08in /  1018.5hPa WSW 6.0mph /  9.7km/h 16.0mph /  25.7km/h 70% 0.00in /  0mm
13:19 76.8 °F /  24.9 °C 66.3 °F /  19.1 °C 30.08in /  1018.5hPa SW 4.0mph /  6.4km/h 16.0mph /  25.7km/h 70% 0.00in /  0mm
13:24 77.2 °F /  25.1 °C 67.1 °F /  19.5 °C 30.08in /  1018.5hPa SSW 4.0mph /  6.4km/h 14.0mph /  22.5km/h 71% 0.00in /  0mm
13:29 77.4 °F /  25.2 °C 66.4 °F /  19.1 °C 30.08in /  1018.5hPa SW 6.0mph /  9.7km/h 12.0mph /  19.3km/h 69% 0.00in /  0mm
13:34 77.9 °F /  25.5 °C 66.5 °F /  19.2 °C 30.08in /  1018.5hPa SW 6.0mph /  9.7km/h 13.0mph /  20.9km/h 68% 0.00in /  0mm
13:39 78.1 °F /  25.6 °C 66.3 °F /  19.1 °C 30.08in /  1018.5hPa SW 5.0mph /  8km/h 15.0mph /  24.1km/h 67% 0.00in /  0mm
13:44 78.0 °F /  25.6 °C 65.7 °F /  18.7 °C 30.08in /  1018.5hPa SW 6.0mph /  9.7km/h 15.0mph /  24.1km/h 66% 0.00in /  0mm
13:49 78.1 °F /  25.6 °C 67.9 °F /  19.9 °C 30.07in /  1018.2hPa WSW 3.0mph /  4.8km/h 14.0mph /  22.5km/h 71% 0.00in /  0mm
13:54 78.7 °F /  25.9 °C 66.8 °F /  19.3 °C 30.07in /  1018.2hPa WSW 6.0mph /  9.7km/h 12.0mph /  19.3km/h 67% 0.00in /  0mm
13:59 78.9 °F /  26.1 °C 66.6 °F /  19.2 °C 30.07in /  1018.2hPa SW 6.0mph /  9.7km/h 13.0mph /  20.9km/h 66% 0.00in /  0mm
14:04 78.9 °F /  26.1 °C 67.0 °F /  19.4 °C 30.07in /  1018.2hPa WSW 6.0mph /  9.7km/h 13.0mph /  20.9km/h 67% 0.00in /  0mm
14:09 78.7 °F /  25.9 °C 66.4 °F /  19.1 °C 30.07in /  1018.2hPa SW 6.0mph /  9.7km/h 14.0mph /  22.5km/h 66% 0.00in /  0mm
14:14 78.7 °F /  25.9 °C 66.8 °F /  19.3 °C 30.07in /  1018.2hPa SSW 4.0mph /  6.4km/h 14.0mph /  22.5km/h 67% 0.00in /  0mm
14:19 78.7 °F /  25.9 °C 67.3 °F /  19.6 °C 30.07in /  1018.2hPa SW 6.0mph /  9.7km/h 16.0mph /  25.7km/h 68% 0.00in /  0mm
14:24 79.0 °F /  26.1 °C 66.7 °F /  19.3 °C 30.07in /  1018.2hPa SW 5.0mph /  8km/h 16.0mph /  25.7km/h 66% 0.00in /  0mm
14:29 79.4 °F /  26.3 °C 67.5 °F /  19.7 °C 30.07in /  1018.2hPa SSW 3.0mph /  4.8km/h 11.0mph /  17.7km/h 67% 0.00in /  0mm
14:34 79.6 °F /  26.4 °C 66.8 °F /  19.3 °C 30.07in /  1018.2hPa SW 7.0mph /  11.3km/h 14.0mph /  22.5km/h 65% 0.00in /  0mm
14:39 79.5 °F /  26.4 °C 67.6 °F /  19.8 °C 30.07in /  1018.2hPa SW 5.0mph /  8km/h 14.0mph /  22.5km/h 67% 0.00in /  0mm
14:44 79.6 °F /  26.4 °C 66.4 °F /  19.1 °C 30.07in /  1018.2hPa SSW 5.0mph /  8km/h 13.0mph /  20.9km/h 64% 0.00in /  0mm
14:49 78.9 °F /  26.1 °C 66.6 °F /  19.2 °C 30.07in /  1018.2hPa SSW 2.0mph /  3.2km/h 12.0mph /  19.3km/h 66% 0.00in /  0mm
14:54 78.1 °F /  25.6 °C 66.3 °F /  19.1 °C 30.07in /  1018.2hPa SSE 2.0mph /  3.2km/h 12.0mph /  19.3km/h 67% 0.00in /  0mm
15:04 77.5 °F /  25.3 °C 66.1 °F /  18.9 °C 30.07in /  1018.2hPa SSW 3.0mph /  4.8km/h 8.0mph /  12.9km/h 68% 0.00in /  0mm
15:09 77.1 °F /  25.1 °C 66.6 °F /  19.2 °C 30.07in /  1018.2hPa SSW 2.0mph /  3.2km/h 9.0mph /  14.5km/h 70% 0.00in /  0mm
15:14 76.8 °F /  24.9 °C 65.5 °F /  18.6 °C 30.07in /  1018.2hPa SSW 3.0mph /  4.8km/h 9.0mph /  14.5km/h 68% 0.00in /  0mm
15:19 76.4 °F /  24.7 °C 65.1 °F /  18.4 °C 30.07in /  1018.2hPa SSW 4.0mph /  6.4km/h 12.0mph /  19.3km/h 68% 0.00in /  0mm
15:24 76.9 °F /  24.9 °C 66.0 °F /  18.9 °C 30.06in /  1017.8hPa SSW 4.0mph /  6.4km/h 12.0mph /  19.3km/h 69% 0.00in /  0mm
15:29 76.7 °F /  24.8 °C 65.8 °F /  18.8 °C 30.06in /  1017.8hPa SSW 3.0mph /  4.8km/h 9.0mph /  14.5km/h 69% 0.00in /  0mm
15:34 76.2 °F /  24.6 °C 65.3 °F /  18.5 °C 30.06in /  1017.8hPa SW 3.0mph /  4.8km/h 8.0mph /  12.9km/h 69% 0.00in /  0mm
15:44 75.6 °F /  24.2 °C 65.5 °F /  18.6 °C 30.06in /  1017.8hPa SW 1.0mph /  1.6km/h 6.0mph /  9.7km/h 71% 0.00in /  0mm
15:49 75.4 °F /  24.1 °C 65.4 °F /  18.6 °C 30.06in /  1017.8hPa SSW 2.0mph /  3.2km/h 6.0mph /  9.7km/h 71% 0.00in /  0mm
15:54 75.6 °F /  24.2 °C 65.9 °F /  18.8 °C 30.06in /  1017.8hPa SSE 3.0mph /  4.8km/h 6.0mph /  9.7km/h 72% 0.00in /  0mm
15:59 76.2 °F /  24.6 °C 66.9 °F /  19.4 °C 30.06in /  1017.8hPa Calm   7.0mph /  11.3km/h 73% 0.00in /  0mm
16:04 76.4 °F /  24.7 °C 65.1 °F /  18.4 °C 30.06in /  1017.8hPa SSW 6.0mph /  9.7km/h 12.0mph /  19.3km/h 68% 0.00in /  0mm
16:09 76.2 °F /  24.6 °C 65.7 °F /  18.7 °C 30.06in /  1017.8hPa SSW 2.0mph /  3.2km/h 13.0mph /  20.9km/h 70% 0.00in /  0mm
16:14 77.1 °F /  25.1 °C 66.6 °F /  19.2 °C 30.06in /  1017.8hPa SSW 7.0mph /  11.3km/h 13.0mph /  20.9km/h 70% 0.00in /  0mm
16:19 78.1 °F /  25.6 °C 65.4 °F /  18.6 °C 30.06in /  1017.8hPa SSW 6.0mph /  9.7km/h 14.0mph /  22.5km/h 65% 0.00in /  0mm
16:24 77.5 °F /  25.3 °C 64.8 °F /  18.2 °C 30.06in /  1017.8hPa SSW 4.0mph /  6.4km/h 15.0mph /  24.1km/h 65% 0.00in /  0mm
16:29 76.5 °F /  24.7 °C 64.3 °F /  17.9 °C 30.06in /  1017.8hPa SW 6.0mph /  9.7km/h 15.0mph /  24.1km/h 66% 0.00in /  0mm
16:39 76.5 °F /  24.7 °C 64.7 °F /  18.2 °C 30.05in /  1017.5hPa SW 4.0mph /  6.4km/h 15.0mph /  24.1km/h 67% 0.00in /  0mm
16:45 77.1 °F /  25.1 °C 64.9 °F /  18.3 °C 30.05in /  1017.5hPa WSW 9.0mph /  14.5km/h 16.0mph /  25.7km/h 66% 0.00in /  0mm
16:54 77.9 °F /  25.5 °C 65.2 °F /  18.4 °C 30.05in /  1017.5hPa SSW 9.0mph /  14.5km/h 18.0mph /  29km/h 65% 0.00in /  0mm
17:04 78.0 °F /  25.6 °C 66.2 °F /  19 °C 30.05in /  1017.5hPa SW 4.0mph /  6.4km/h 14.0mph /  22.5km/h 67% 0.00in /  0mm
17:09 78.2 °F /  25.7 °C 65.5 °F /  18.6 °C 30.05in /  1017.5hPa SW 7.0mph /  11.3km/h 14.0mph /  22.5km/h 65% 0.00in /  0mm
17:14 78.1 °F /  25.6 °C 65.4 °F /  18.6 °C 30.05in /  1017.5hPa SW 6.0mph /  9.7km/h 13.0mph /  20.9km/h 65% 0.00in /  0mm
17:19 77.8 °F /  25.4 °C 65.5 °F /  18.6 °C 30.05in /  1017.5hPa SW 6.0mph /  9.7km/h 17.0mph /  27.4km/h 66% 0.00in /  0mm
17:24 77.6 °F /  25.3 °C 64.9 °F /  18.3 °C 30.05in /  1017.5hPa SW 5.0mph /  8km/h 17.0mph /  27.4km/h 65% 0.00in /  0mm
17:29 77.7 °F /  25.4 °C 65.0 °F /  18.3 °C 30.05in /  1017.5hPa SW 4.0mph /  6.4km/h 12.0mph /  19.3km/h 65% 0.00in /  0mm
17:34 77.6 °F /  25.3 °C 64.9 °F /  18.3 °C 30.05in /  1017.5hPa SW 4.0mph /  6.4km/h 15.0mph /  24.1km/h 65% 0.00in /  0mm
17:39 77.9 °F /  25.5 °C 65.2 °F /  18.4 °C 30.05in /  1017.5hPa SW 5.0mph /  8km/h 15.0mph /  24.1km/h 65% 0.00in /  0mm
17:44 77.6 °F /  25.3 °C 64.5 °F /  18.1 °C 30.05in /  1017.5hPa SSW 6.0mph /  9.7km/h 15.0mph /  24.1km/h 64% 0.00in /  0mm
17:49 77.4 °F /  25.2 °C 64.3 °F /  17.9 °C 30.05in /  1017.5hPa SW 5.0mph /  8km/h 15.0mph /  24.1km/h 64% 0.00in /  0mm
17:54 77.5 °F /  25.3 °C 63.0 °F /  17.2 °C 30.05in /  1017.5hPa SW 7.0mph /  11.3km/h 14.0mph /  22.5km/h 61% 0.00in /  0mm
17:59 77.4 °F /  25.2 °C 63.8 °F /  17.7 °C 30.05in /  1017.5hPa SW 6.0mph /  9.7km/h 14.0mph /  22.5km/h 63% 0.00in /  0mm
18:04 77.4 °F /  25.2 °C 63.4 °F /  17.4 °C 30.05in /  1017.5hPa SSW 3.0mph /  4.8km/h 13.0mph /  20.9km/h 62% 0.00in /  0mm
18:09 77.4 °F /  25.2 °C 63.8 °F /  17.7 °C 30.05in /  1017.5hPa SSW 5.0mph /  8km/h 14.0mph /  22.5km/h 63% 0.00in /  0mm
18:14 77.1 °F /  25.1 °C 63.6 °F /  17.6 °C 30.05in /  1017.5hPa SW 5.0mph /  8km/h 14.0mph /  22.5km/h 63% 0.00in /  0mm
18:19 77.1 °F /  25.1 °C 64.0 °F /  17.8 °C 30.05in /  1017.5hPa SW 4.0mph /  6.4km/h 14.0mph /  22.5km/h 64% 0.00in /  0mm
18:24 76.9 °F /  24.9 °C 63.4 °F /  17.4 °C 30.05in /  1017.5hPa SW 3.0mph /  4.8km/h 11.0mph /  17.7km/h 63% 0.00in /  0mm
18:29 76.9 °F /  24.9 °C 63.8 °F /  17.7 °C 30.05in /  1017.5hPa SW 1.0mph /  1.6km/h 11.0mph /  17.7km/h 64% 0.00in /  0mm
18:34 76.9 °F /  24.9 °C 63.8 °F /  17.7 °C 30.05in /  1017.5hPa SSW 4.0mph /  6.4km/h 9.0mph /  14.5km/h 64% 0.00in /  0mm
18:44 76.4 °F /  24.7 °C 62.9 °F /  17.2 °C 30.05in /  1017.5hPa SSW 5.0mph /  8km/h 13.0mph /  20.9km/h 63% 0.00in /  0mm
18:54 76.0 °F /  24.4 °C 63.0 °F /  17.2 °C 30.05in /  1017.5hPa SW 2.0mph /  3.2km/h 13.0mph /  20.9km/h 64% 0.00in /  0mm
18:59 75.7 °F /  24.3 °C 62.2 °F /  16.8 °C 30.05in /  1017.5hPa SW 3.0mph /  4.8km/h 13.0mph /  20.9km/h 63% 0.00in /  0mm
19:04 75.3 °F /  24.1 °C 62.3 °F /  16.8 °C 30.05in /  1017.5hPa SW 3.0mph /  4.8km/h 12.0mph /  19.3km/h 64% 0.00in /  0mm
19:09 75.1 °F /  23.9 °C 62.5 °F /  16.9 °C 30.06in /  1017.8hPa SW 1.0mph /  1.6km/h 12.0mph /  19.3km/h 65% 0.00in /  0mm
19:14 74.8 °F /  23.8 °C 62.3 °F /  16.8 °C 30.06in /  1017.8hPa SW 3.0mph /  4.8km/h 12.0mph /  19.3km/h 65% 0.00in /  0mm
19:19 74.5 °F /  23.6 °C 62.4 °F /  16.9 °C 30.06in /  1017.8hPa SW 1.0mph /  1.6km/h 12.0mph /  19.3km/h 66% 0.00in /  0mm
19:24 74.3 °F /  23.5 °C 62.2 °F /  16.8 °C 30.06in /  1017.8hPa Calm   11.0mph /  17.7km/h 66% 0.00in /  0mm
19:30 74.2 °F /  23.4 °C 62.6 °F /  17 °C 30.06in /  1017.8hPa SSW 3.0mph /  4.8km/h 11.0mph /  17.7km/h 67% 0.00in /  0mm
19:40 73.5 °F /  23.1 °C 62.3 °F /  16.8 °C 30.06in /  1017.8hPa SSW 6.0mph /  9.7km/h 12.0mph /  19.3km/h 68% 0.00in /  0mm
19:49 73.2 °F /  22.9 °C 62.4 °F /  16.9 °C 30.06in /  1017.8hPa SW 2.0mph /  3.2km/h 7.0mph /  11.3km/h 69% 0.00in /  0mm
19:54 73.0 °F /  22.8 °C 62.2 °F /  16.8 °C 30.06in /  1017.8hPa SSW 1.0mph /  1.6km/h 7.0mph /  11.3km/h 69% 0.00in /  0mm
19:59 72.6 °F /  22.6 °C 62.3 °F /  16.8 °C 30.06in /  1017.8hPa SSW 2.0mph /  3.2km/h 6.0mph /  9.7km/h 70% 0.00in /  0mm
20:04 72.2 °F /  22.3 °C 61.9 °F /  16.6 °C 30.06in /  1017.8hPa Calm   8.0mph /  12.9km/h 70% 0.00in /  0mm
20:09 71.9 °F /  22.2 °C 62.0 °F /  16.7 °C 30.06in /  1017.8hPa WSW 1.0mph /  1.6km/h 8.0mph /  12.9km/h 71% 0.00in /  0mm
20:14 71.5 °F /  21.9 °C 61.6 °F /  16.4 °C 30.06in /  1017.8hPa SW 1.0mph /  1.6km/h 7.0mph /  11.3km/h 71% 0.00in /  0mm
20:19 71.1 °F /  21.7 °C 61.6 °F /  16.4 °C 30.06in /  1017.8hPa SW 1.0mph /  1.6km/h 7.0mph /  11.3km/h 72% 0.00in /  0mm
20:24 70.8 °F /  21.6 °C 61.7 °F /  16.5 °C 30.06in /  1017.8hPa Calm   6.0mph /  9.7km/h 73% 0.00in /  0mm
20:30 70.3 °F /  21.3 °C 61.2 °F /  16.2 °C 30.06in /  1017.8hPa Calm   4.0mph /  6.4km/h 73% 0.00in /  0mm
20:39 69.7 °F /  20.9 °C 61.4 °F /  16.3 °C 30.06in /  1017.8hPa Calm   6.0mph /  9.7km/h 75% 0.00in /  0mm
20:44 69.3 °F /  20.7 °C 61.4 °F /  16.3 °C 30.07in /  1018.2hPa Calm   2.0mph /  3.2km/h 76% 0.00in /  0mm
20:49 68.8 °F /  20.4 °C 61.3 °F /  16.3 °C 30.07in /  1018.2hPa Calm   2.0mph /  3.2km/h 77% 0.00in /  0mm
20:54 68.6 °F /  20.3 °C 61.5 °F /  16.4 °C 30.07in /  1018.2hPa Calm   2.0mph /  3.2km/h 78% 0.00in /  0mm
20:59 68.4 °F /  20.2 °C 60.9 °F /  16.1 °C 30.07in /  1018.2hPa South 1.0mph /  1.6km/h 5.0mph /  8km/h 77% 0.00in /  0mm
21:04 68.5 °F /  20.3 °C 61.0 °F /  16.1 °C 30.07in /  1018.2hPa SSE 1.0mph /  1.6km/h 8.0mph /  12.9km/h 77% 0.00in /  0mm
21:09 68.6 °F /  20.3 °C 61.1 °F /  16.2 °C 30.07in /  1018.2hPa Calm   8.0mph /  12.9km/h 77% 0.00in /  0mm
21:14 68.6 °F /  20.3 °C 60.7 °F /  15.9 °C 30.07in /  1018.2hPa SSE 1.0mph /  1.6km/h 8.0mph /  12.9km/h 76% 0.00in /  0mm
21:19 68.4 °F /  20.2 °C 60.5 °F /  15.8 °C 30.07in /  1018.2hPa Calm   8.0mph /  12.9km/h 76% 0.00in /  0mm
21:24 68.2 °F /  20.1 °C 60.7 °F /  15.9 °C 30.07in /  1018.2hPa Calm   7.0mph /  11.3km/h 77% 0.00in /  0mm
21:29 67.9 °F /  19.9 °C 60.4 °F /  15.8 °C 30.07in /  1018.2hPa Calm   5.0mph /  8km/h 77% 0.00in /  0mm
21:34 67.7 °F /  19.8 °C 60.6 °F /  15.9 °C 30.07in /  1018.2hPa Calm   6.0mph /  9.7km/h 78% 0.00in /  0mm
21:40 67.6 °F /  19.8 °C 60.5 °F /  15.8 °C 30.07in /  1018.2hPa Calm   7.0mph /  11.3km/h 78% 0.00in /  0mm
21:49 67.7 °F /  19.8 °C 60.6 °F /  15.9 °C 30.07in /  1018.2hPa SW 1.0mph /  1.6km/h 8.0mph /  12.9km/h 78% 0.00in /  0mm
21:54 67.6 °F /  19.8 °C 60.5 °F /  15.8 °C 30.07in /  1018.2hPa South 1.0mph /  1.6km/h 8.0mph /  12.9km/h 78% 0.00in /  0mm
21:59 67.4 °F /  19.7 °C 60.3 °F /  15.7 °C 30.07in /  1018.2hPa Calm   7.0mph /  11.3km/h 78% 0.00in /  0mm
22:04 67.2 °F /  19.6 °C 60.5 °F /  15.8 °C 30.07in /  1018.2hPa Calm   5.0mph /  8km/h 79% 0.00in /  0mm
22:09 67.0 °F /  19.4 °C 60.3 °F /  15.7 °C 30.07in /  1018.2hPa Calm   5.0mph /  8km/h 79% 0.00in /  0mm
22:14 66.8 °F /  19.3 °C 60.4 °F /  15.8 °C 30.07in /  1018.2hPa SSE 1.0mph /  1.6km/h 7.0mph /  11.3km/h 80% 0.00in /  0mm
22:19 66.6 °F /  19.2 °C 60.2 °F /  15.7 °C 30.07in /  1018.2hPa SW 1.0mph /  1.6km/h 9.0mph /  14.5km/h 80% 0.00in /  0mm
22:24 66.5 °F /  19.2 °C 60.5 °F /  15.8 °C 30.07in /  1018.2hPa Calm   9.0mph /  14.5km/h 81% 0.00in /  0mm
22:29 66.5 °F /  19.2 °C 60.5 °F /  15.8 °C 30.08in /  1018.5hPa Calm   7.0mph /  11.3km/h 81% 0.00in /  0mm
22:34 66.5 °F /  19.2 °C 60.5 °F /  15.8 °C 30.07in /  1018.2hPa SSW 2.0mph /  3.2km/h 7.0mph /  11.3km/h 81% 0.00in /  0mm
22:39 66.6 °F /  19.2 °C 60.6 °F /  15.9 °C 30.07in /  1018.2hPa Calm   7.0mph /  11.3km/h 81% 0.00in /  0mm
22:49 66.5 °F /  19.2 °C 60.8 °F /  16 °C 30.07in /  1018.2hPa South 1.0mph /  1.6km/h 5.0mph /  8km/h 82% 0.00in /  0mm
22:54 66.4 °F /  19.1 °C 60.4 °F /  15.8 °C 30.08in /  1018.5hPa Calm   5.0mph /  8km/h 81% 0.00in /  0mm
22:59 66.3 °F /  19.1 °C 60.6 °F /  15.9 °C 30.08in /  1018.5hPa Calm   5.0mph /  8km/h 82% 0.00in /  0mm
23:04 66.1 °F /  18.9 °C 60.5 °F /  15.8 °C 30.08in /  1018.5hPa Calm   4.0mph /  6.4km/h 82% 0.00in /  0mm
23:09 65.8 °F /  18.8 °C 60.2 °F /  15.7 °C 30.08in /  1018.5hPa Calm   6.0mph /  9.7km/h 82% 0.00in /  0mm
23:14 65.5 °F /  18.6 °C 60.2 °F /  15.7 °C 30.08in /  1018.5hPa Calm   6.0mph /  9.7km/h 83% 0.00in /  0mm
23:19 65.3 °F /  18.5 °C 60.0 °F /  15.6 °C 30.08in /  1018.5hPa Calm   5.0mph /  8km/h 83% 0.00in /  0mm
23:24 65.3 °F /  18.5 °C 60.3 °F /  15.7 °C 30.08in /  1018.5hPa South 1.0mph /  1.6km/h 4.0mph /  6.4km/h 84% 0.00in /  0mm
23:29 65.3 °F /  18.5 °C 60.3 °F /  15.7 °C 30.08in /  1018.5hPa Calm   4.0mph /  6.4km/h 84% 0.00in /  0mm
23:34 65.2 °F /  18.4 °C 60.2 °F /  15.7 °C 30.08in /  1018.5hPa Calm   3.0mph /  4.8km/h 84% 0.00in /  0mm
23:39 65.2 °F /  18.4 °C 60.2 °F /  15.7 °C 30.08in /  1018.5hPa Calm   3.0mph /  4.8km/h 84% 0.00in /  0mm
23:44 65.2 °F /  18.4 °C 60.2 °F /  15.7 °C 30.08in /  1018.5hPa Calm   4.0mph /  6.4km/h 84% 0.00in /  0mm
23:49 65.4 °F /  18.6 °C 60.4 °F /  15.8 °C 30.08in /  1018.5hPa Calm   4.0mph /  6.4km/h 84% 0.00in /  0mm
23:54 65.4 °F /  18.6 °C 60.4 °F /  15.8 °C 30.08in /  1018.5hPa Calm   4.0mph /  6.4km/h 84% 0.00in /  0mm
23:59 65.4 °F /  18.6 °C 60.4 °F /  15.8 °C 30.08in /  1018.5hPa Calm   4.0mph /  6.4km/h 84% 0.00in /  0mm
Westford Weather
Compliments of Weather Underground

 
 
Current Radar Loop:

Copyright © WestfordWeather.net 2007-2014. All rights reserved.